createdAt,value
2018-07-19T00:01:58.389Z,99.90
2018-07-19T00:04:26.594Z,99.90
2018-07-19T00:06:54.758Z,99.90
2018-07-19T00:09:22.933Z,99.90
2018-07-19T00:11:51.158Z,99.90
2018-07-19T00:14:19.334Z,99.90
2018-07-19T00:16:47.502Z,99.90
2018-07-19T00:19:15.687Z,99.90
2018-07-19T00:21:43.839Z,99.90
2018-07-19T00:24:12.032Z,99.90
2018-07-19T00:26:40.199Z,99.90
2018-07-19T00:29:08.333Z,99.90
2018-07-19T00:31:36.536Z,99.90
2018-07-19T00:34:04.686Z,99.90
2018-07-19T00:36:32.894Z,99.90
2018-07-19T00:39:01.078Z,99.90
2018-07-19T00:41:29.289Z,99.90
2018-07-19T00:43:57.424Z,99.90
2018-07-19T00:46:25.574Z,99.90
2018-07-19T00:48:53.812Z,99.90
2018-07-19T00:51:21.955Z,99.90
2018-07-19T00:53:50.127Z,99.90
2018-07-19T00:56:18.371Z,99.90
2018-07-19T00:58:46.547Z,99.90
2018-07-19T01:01:14.710Z,99.90
2018-07-19T01:03:42.865Z,99.90
2018-07-19T01:06:11.031Z,99.90
2018-07-19T01:08:39.206Z,99.90
2018-07-19T01:11:07.474Z,99.90
2018-07-19T01:13:35.623Z,99.90
2018-07-19T01:16:03.791Z,99.90
2018-07-19T01:18:31.958Z,99.90
2018-07-19T01:21:00.147Z,99.90
2018-07-19T01:23:28.299Z,99.90
2018-07-19T01:25:56.497Z,99.90
2018-07-19T01:30:52.639Z,99.90
2018-07-19T01:33:20.821Z,99.90
2018-07-19T01:35:48.968Z,99.90
2018-07-19T01:38:17.118Z,99.90
2018-07-19T01:40:45.306Z,99.90
2018-07-19T01:43:13.465Z,99.90
2018-07-19T01:45:41.626Z,99.90
2018-07-19T01:48:09.825Z,99.90
2018-07-19T01:50:37.998Z,99.90
2018-07-19T01:53:06.158Z,99.90
2018-07-19T01:55:34.318Z,99.90
2018-07-19T01:58:02.458Z,99.90
2018-07-19T02:00:30.610Z,99.90
2018-07-19T02:02:58.749Z,99.90
2018-07-19T02:05:26.879Z,99.90
2018-07-19T02:07:55.034Z,99.90
2018-07-19T02:10:23.171Z,99.90
2018-07-19T02:12:51.332Z,99.90
2018-07-19T02:15:19.476Z,99.90
2018-07-19T02:17:47.622Z,99.90
2018-07-19T02:20:15.776Z,99.90
2018-07-19T02:22:43.950Z,99.90
2018-07-19T02:25:12.094Z,99.90
2018-07-19T02:27:40.293Z,99.90
2018-07-19T02:30:08.458Z,99.90
2018-07-19T02:32:36.636Z,99.90
2018-07-19T02:35:04.809Z,99.90
2018-07-19T02:37:32.981Z,99.90
2018-07-19T02:40:01.133Z,99.90
2018-07-19T02:42:29.293Z,99.90
2018-07-19T02:44:57.445Z,99.90
2018-07-19T02:47:25.597Z,99.90
2018-07-19T02:49:53.759Z,99.90
2018-07-19T02:52:21.914Z,99.90
2018-07-19T02:54:50.110Z,99.90
2018-07-19T02:57:18.294Z,99.90
2018-07-19T02:59:46.458Z,99.90
2018-07-19T03:02:14.686Z,99.90
2018-07-19T03:04:42.771Z,99.90
2018-07-19T03:07:10.901Z,99.90
2018-07-19T03:09:39.042Z,99.90
2018-07-19T03:12:07.333Z,99.90
2018-07-19T03:14:35.477Z,99.90
2018-07-19T03:17:03.640Z,99.90
2018-07-19T03:19:31.786Z,99.90
2018-07-19T03:21:59.956Z,99.90
2018-07-19T03:24:28.121Z,99.90
2018-07-19T03:26:56.390Z,99.90
2018-07-19T03:29:24.550Z,99.90
2018-07-19T03:31:52.722Z,99.90
2018-07-19T03:34:20.873Z,99.90
2018-07-19T03:36:49.006Z,99.90
2018-07-19T03:39:17.164Z,99.90
2018-07-19T03:41:45.320Z,99.90
2018-07-19T03:44:13.490Z,99.90
2018-07-19T03:46:41.668Z,99.90
2018-07-19T03:49:09.855Z,99.90
2018-07-19T03:51:38.018Z,99.90
2018-07-19T03:54:06.193Z,99.90
2018-07-19T03:56:34.353Z,99.90
2018-07-19T03:59:09.247Z,99.90
2018-07-19T04:01:37.394Z,99.90
2018-07-19T04:04:05.614Z,99.90
2018-07-19T04:06:33.782Z,99.90
2018-07-19T04:09:01.931Z,99.90
2018-07-19T04:11:30.072Z,99.90
2018-07-19T04:13:58.272Z,99.90
2018-07-19T04:16:26.510Z,99.90
2018-07-19T04:18:54.690Z,99.90
2018-07-19T04:21:22.898Z,99.90
2018-07-19T04:23:51.050Z,99.90
2018-07-19T04:26:19.225Z,99.90
2018-07-19T04:28:47.419Z,99.90
2018-07-19T04:31:15.554Z,99.90
2018-07-19T04:33:43.911Z,99.90
2018-07-19T04:36:12.126Z,99.90
2018-07-19T04:38:40.286Z,99.90
2018-07-19T04:41:08.433Z,99.90
2018-07-19T04:43:36.702Z,99.90
2018-07-19T04:46:05.097Z,99.90
2018-07-19T04:48:33.270Z,99.90
2018-07-19T04:51:01.445Z,99.90
2018-07-19T04:53:29.618Z,99.90
2018-07-19T04:55:57.802Z,99.90
2018-07-19T04:58:25.966Z,99.90
2018-07-19T05:00:54.099Z,99.90
2018-07-19T05:03:22.278Z,99.90
2018-07-19T05:05:50.550Z,99.90
2018-07-19T05:08:18.741Z,99.90
2018-07-19T05:10:46.882Z,99.90
2018-07-19T05:13:15.055Z,99.90
2018-07-19T05:18:11.191Z,99.90
2018-07-19T05:20:39.377Z,99.90
2018-07-19T05:23:07.648Z,99.90
2018-07-19T05:25:35.813Z,99.90
2018-07-19T05:28:03.962Z,99.90
2018-07-19T05:30:32.207Z,99.90
2018-07-19T05:33:00.379Z,99.90
2018-07-19T05:35:28.556Z,99.90
2018-07-19T05:37:56.689Z,99.90
2018-07-19T05:40:24.844Z,99.90
2018-07-19T05:42:53.109Z,99.90
2018-07-19T05:45:21.365Z,99.90
2018-07-19T05:47:49.514Z,99.90
2018-07-19T05:50:17.686Z,99.90
2018-07-19T05:52:45.841Z,99.90
2018-07-19T05:55:13.997Z,99.90
2018-07-19T05:57:43.218Z,99.90
2018-07-19T06:00:11.381Z,99.90
2018-07-19T06:02:39.531Z,99.90
2018-07-19T06:05:07.685Z,99.90
2018-07-19T06:07:35.842Z,99.90
2018-07-19T06:10:04.466Z,99.90
2018-07-19T06:12:32.723Z,99.90
2018-07-19T06:15:00.930Z,99.90
2018-07-19T06:17:29.066Z,99.90
2018-07-19T06:19:57.209Z,99.90
2018-07-19T06:22:25.350Z,99.90
2018-07-19T06:24:53.525Z,99.90
2018-07-19T06:27:21.659Z,99.90
2018-07-19T06:29:49.837Z,99.90
2018-07-19T06:32:17.970Z,99.90
2018-07-19T06:34:46.113Z,99.90
2018-07-19T06:37:14.253Z,99.90
2018-07-19T06:39:42.458Z,99.90
2018-07-19T06:42:10.604Z,99.90
2018-07-19T06:44:38.758Z,99.90
2018-07-19T06:47:06.899Z,99.90
2018-07-19T06:49:35.139Z,99.90
2018-07-19T06:52:03.213Z,99.90
2018-07-19T06:54:31.369Z,99.90
2018-07-19T06:56:59.513Z,99.90
2018-07-19T06:59:27.670Z,99.90
2018-07-19T07:01:55.841Z,99.90
2018-07-19T07:04:23.982Z,99.90
2018-07-19T07:06:52.146Z,99.90
2018-07-19T07:09:20.360Z,99.90
2018-07-19T07:11:48.528Z,99.90
2018-07-19T07:14:16.822Z,99.90
2018-07-19T07:16:45.049Z,99.90
2018-07-19T07:19:13.226Z,99.90
2018-07-19T07:21:41.446Z,99.90
2018-07-19T07:24:09.660Z,99.90
2018-07-19T07:26:37.889Z,99.90
2018-07-19T07:29:06.082Z,99.90
2018-07-19T07:31:34.252Z,99.90
2018-07-19T07:34:02.441Z,99.90
2018-07-19T07:38:58.552Z,99.90
2018-07-19T07:41:26.693Z,99.90
2018-07-19T07:43:54.872Z,99.90
2018-07-19T07:46:23.038Z,99.90
2018-07-19T07:48:51.196Z,99.90
2018-07-19T07:51:19.362Z,99.90
2018-07-19T07:53:47.518Z,99.90
2018-07-19T07:56:15.701Z,99.90
2018-07-19T07:58:43.886Z,99.90
2018-07-19T08:01:12.074Z,99.90
2018-07-19T08:03:41.381Z,99.90
2018-07-19T08:06:09.534Z,99.90
2018-07-19T08:08:37.698Z,99.90
2018-07-19T08:11:05.975Z,99.90
2018-07-19T08:13:34.126Z,99.90
2018-07-19T08:18:30.207Z,99.90
2018-07-19T08:20:58.364Z,99.90
2018-07-19T08:23:26.505Z,99.90
2018-07-19T08:25:54.714Z,99.90
2018-07-19T08:28:22.873Z,99.90
2018-07-19T08:30:51.062Z,99.90
2018-07-19T08:33:19.213Z,99.90
2018-07-19T08:35:47.384Z,99.90
2018-07-19T08:38:15.518Z,99.90
2018-07-19T08:40:43.697Z,99.90
2018-07-19T08:43:11.850Z,99.90
2018-07-19T08:45:40.015Z,99.90
2018-07-19T08:48:08.198Z,99.90
2018-07-19T08:50:36.366Z,99.90
2018-07-19T08:53:04.550Z,99.90
2018-07-19T08:55:32.702Z,99.90
2018-07-19T08:58:00.875Z,99.90
2018-07-19T09:00:29.009Z,99.90
2018-07-19T09:02:57.170Z,99.90
2018-07-19T09:05:25.329Z,99.90
2018-07-19T09:07:53.488Z,99.90
2018-07-19T09:10:21.629Z,99.90
2018-07-19T09:12:49.788Z,99.90
2018-07-19T09:15:17.993Z,99.90
2018-07-19T09:17:46.267Z,99.90
2018-07-19T09:20:14.437Z,99.90
2018-07-19T09:22:42.647Z,99.90
2018-07-19T09:25:10.937Z,99.90
2018-07-19T09:27:39.094Z,99.90
2018-07-19T09:30:07.442Z,99.90
2018-07-19T09:32:35.649Z,99.90
2018-07-19T09:35:03.828Z,99.60
2018-07-19T09:37:31.998Z,98.80
2018-07-19T09:40:00.159Z,98.70
2018-07-19T09:42:28.330Z,99.90
2018-07-19T09:44:56.506Z,99.60
2018-07-19T09:47:24.674Z,99.90
2018-07-19T09:49:52.844Z,99.60
2018-07-19T09:52:21.156Z,99.10
2018-07-19T09:54:53.546Z,99.90
2018-07-19T09:57:22.034Z,98.90
2018-07-19T09:59:50.518Z,98.10
2018-07-19T10:02:18.681Z,97.60
2018-07-19T10:04:46.834Z,98.40
2018-07-19T10:07:15.010Z,98.40
2018-07-19T10:09:43.166Z,99.90
2018-07-19T10:12:11.589Z,98.30
2018-07-19T10:14:39.797Z,97.30
2018-07-19T10:17:07.986Z,97.20
2018-07-19T10:19:36.426Z,96.40
2018-07-19T10:22:04.612Z,95.80
2018-07-19T10:24:32.785Z,95.80
2018-07-19T10:27:00.955Z,95.60
2018-07-19T10:29:29.121Z,96.00
2018-07-19T10:31:57.382Z,96.20
2018-07-19T10:34:25.559Z,96.60
2018-07-19T10:39:21.581Z,97.40
2018-07-19T10:41:49.719Z,96.70
2018-07-19T10:44:17.870Z,96.30
2018-07-19T10:46:46.001Z,96.40
2018-07-19T10:49:14.180Z,96.30
2018-07-19T10:51:42.388Z,96.30
2018-07-19T10:54:10.514Z,95.20
2018-07-19T10:56:38.657Z,95.30
2018-07-19T10:59:06.817Z,96.70
2018-07-19T11:04:02.881Z,96.00
2018-07-19T11:06:31.120Z,95.60
2018-07-19T11:08:59.347Z,95.20
2018-07-19T11:11:27.481Z,95.00
2018-07-19T11:13:55.613Z,94.30
2018-07-19T11:16:23.767Z,94.00
2018-07-19T11:18:51.895Z,94.40
2018-07-19T11:21:20.070Z,93.50
2018-07-19T11:23:48.202Z,93.80
2018-07-19T11:26:16.365Z,93.80
2018-07-19T11:28:44.501Z,93.90
2018-07-19T11:31:12.671Z,93.40
2018-07-19T11:33:40.806Z,93.60
2018-07-19T11:36:08.942Z,93.10
2018-07-19T11:38:37.122Z,93.60
2018-07-19T11:41:05.250Z,93.30
2018-07-19T11:46:01.358Z,96.10
2018-07-19T11:48:29.538Z,95.10
2018-07-19T11:50:57.738Z,94.80
2018-07-19T11:53:25.874Z,92.40
2018-07-19T11:55:54.011Z,93.40
2018-07-19T11:58:22.253Z,92.60
2018-07-19T12:00:50.670Z,92.00
2018-07-19T12:03:18.893Z,92.30
2018-07-19T12:05:47.050Z,91.80
2018-07-19T12:08:15.202Z,91.50
2018-07-19T12:10:43.337Z,91.40
2018-07-19T12:13:11.550Z,90.40
2018-07-19T12:15:39.677Z,90.80
2018-07-19T12:18:07.865Z,90.70
2018-07-19T12:20:35.941Z,91.00
2018-07-19T12:23:04.103Z,90.80
2018-07-19T12:25:32.249Z,90.30
2018-07-19T12:28:00.394Z,91.00
2018-07-19T12:30:29.335Z,90.50
2018-07-19T12:32:57.513Z,90.60
2018-07-19T12:35:25.693Z,90.40
2018-07-19T12:37:53.813Z,90.30
2018-07-19T12:40:21.953Z,90.50
2018-07-19T12:42:50.089Z,90.00
2018-07-19T12:45:18.240Z,90.90
2018-07-19T12:47:46.421Z,91.40
2018-07-19T12:50:14.557Z,91.30
2018-07-19T12:52:42.694Z,90.70
2018-07-19T12:55:10.857Z,90.70
2018-07-19T12:57:39.031Z,89.80
2018-07-19T13:00:07.177Z,90.10
2018-07-19T13:02:35.315Z,89.30
2018-07-19T13:05:03.497Z,91.20
2018-07-19T13:07:31.632Z,89.00
2018-07-19T13:09:59.774Z,88.10
2018-07-19T13:12:27.926Z,88.60
2018-07-19T13:14:56.089Z,88.30
2018-07-19T13:17:24.225Z,86.10
2018-07-19T13:19:52.385Z,86.40
2018-07-19T13:22:20.532Z,86.00
2018-07-19T13:24:48.994Z,85.90
2018-07-19T13:27:17.153Z,86.00
2018-07-19T13:29:45.314Z,87.70
2018-07-19T13:32:13.672Z,86.40
2018-07-19T13:34:41.844Z,86.70
2018-07-19T13:37:10.019Z,86.50
2018-07-19T13:39:38.152Z,85.80
2018-07-19T13:42:06.394Z,85.50
2018-07-19T13:44:34.582Z,86.30
2018-07-19T13:47:02.745Z,86.60
2018-07-19T13:51:58.785Z,86.50
2018-07-19T13:54:38.006Z,88.90
2018-07-19T13:57:06.149Z,86.10
2018-07-19T13:59:34.297Z,87.60
2018-07-19T14:02:02.449Z,87.10
2018-07-19T14:04:30.586Z,89.00
2018-07-19T14:06:58.730Z,85.80
2018-07-19T14:09:26.857Z,84.10
2018-07-19T14:11:54.996Z,85.90
2018-07-19T14:14:23.125Z,85.80
2018-07-19T14:16:51.257Z,87.80
2018-07-19T14:19:19.433Z,85.80
2018-07-19T14:21:47.595Z,87.10
2018-07-19T14:24:15.705Z,87.60
2018-07-19T14:26:43.919Z,87.20
2018-07-19T14:29:12.128Z,85.20
2018-07-19T14:31:40.265Z,85.00
2018-07-19T14:34:08.388Z,85.00
2018-07-19T14:36:36.540Z,84.90
2018-07-19T14:39:07.957Z,84.00
2018-07-19T14:41:36.201Z,82.10
2018-07-19T14:46:32.630Z,84.60
2018-07-19T14:49:00.761Z,83.20
2018-07-19T14:51:28.925Z,83.70
2018-07-19T14:53:57.049Z,83.30
2018-07-19T14:56:25.269Z,83.30
2018-07-19T14:58:53.397Z,81.70
2018-07-19T15:01:21.641Z,86.60
2018-07-19T15:03:49.821Z,83.10
2018-07-19T15:06:17.989Z,82.90
2018-07-19T15:08:46.139Z,82.50
2018-07-19T15:11:14.297Z,84.60
2018-07-19T15:13:42.531Z,84.80
2018-07-19T15:16:10.805Z,81.30
2018-07-19T15:18:39.054Z,80.80
2018-07-19T15:21:07.305Z,81.80
2018-07-19T15:23:35.596Z,80.20
2018-07-19T15:26:03.890Z,82.40
2018-07-19T15:28:32.053Z,80.70
2018-07-19T15:31:00.329Z,81.10
2018-07-19T15:33:28.547Z,82.90
2018-07-19T15:35:56.778Z,85.10
2018-07-19T15:38:24.966Z,81.80
2018-07-19T15:40:53.169Z,82.60
2018-07-19T15:43:21.389Z,81.60
2018-07-19T15:45:49.727Z,80.80
2018-07-19T15:48:17.946Z,83.00
2018-07-19T15:50:46.097Z,82.10
2018-07-19T15:53:14.390Z,81.10
2018-07-19T15:55:42.619Z,82.70
2018-07-19T15:58:10.869Z,83.10
2018-07-19T16:00:39.161Z,82.20
2018-07-19T16:03:07.447Z,81.20
2018-07-19T16:05:35.748Z,83.60
2018-07-19T16:08:04.005Z,82.10
2018-07-19T16:10:32.202Z,84.00
2018-07-19T16:13:00.570Z,82.60
2018-07-19T16:15:28.723Z,84.50
2018-07-19T16:17:56.937Z,83.80
2018-07-19T16:20:25.354Z,84.80
2018-07-19T16:22:53.649Z,84.90
2018-07-19T16:25:22.010Z,84.90
2018-07-19T16:27:50.217Z,84.90
2018-07-19T16:30:18.373Z,83.50
2018-07-19T16:32:46.950Z,82.30
2018-07-19T16:35:15.090Z,81.70
2018-07-19T16:37:43.286Z,82.30
2018-07-19T16:40:11.465Z,81.70
2018-07-19T16:42:39.666Z,83.30
2018-07-19T16:45:08.167Z,83.80
2018-07-19T16:47:36.398Z,86.00
2018-07-19T16:50:04.941Z,85.30
2018-07-19T16:52:33.143Z,86.20
2018-07-19T16:55:01.334Z,83.60
2018-07-19T16:57:29.529Z,85.40
2018-07-19T16:59:57.894Z,83.50
2018-07-19T17:02:26.129Z,84.90
2018-07-19T17:04:54.337Z,84.70
2018-07-19T17:07:22.507Z,84.70
2018-07-19T17:09:50.769Z,84.10
2018-07-19T17:12:18.970Z,85.00
2018-07-19T17:14:47.353Z,85.10
2018-07-19T17:17:15.614Z,83.10
2018-07-19T17:19:43.793Z,82.30
2018-07-19T17:22:11.974Z,84.40
2018-07-19T17:24:40.149Z,82.10
2018-07-19T17:27:08.298Z,82.00
2018-07-19T17:29:36.442Z,81.30
2018-07-19T17:32:04.565Z,83.20
2018-07-19T17:34:32.792Z,83.80
2018-07-19T17:37:00.934Z,84.30
2018-07-19T17:39:29.082Z,84.50
2018-07-19T17:41:57.313Z,84.10
2018-07-19T17:44:25.504Z,85.40
2018-07-19T17:46:53.570Z,87.30
2018-07-19T17:49:21.698Z,87.70
2018-07-19T17:51:49.922Z,87.90
2018-07-19T17:54:18.149Z,87.50
2018-07-19T17:56:46.285Z,87.90
2018-07-19T17:59:14.438Z,88.30
2018-07-19T18:01:42.585Z,89.10
2018-07-19T18:04:10.733Z,87.10
2018-07-19T18:06:38.925Z,88.90
2018-07-19T18:09:08.436Z,89.10
2018-07-19T18:11:36.553Z,88.60
2018-07-19T18:14:04.774Z,90.00
2018-07-19T18:16:32.895Z,90.30
2018-07-19T18:19:01.086Z,90.70
2018-07-19T18:21:29.293Z,90.40
2018-07-19T18:23:57.629Z,90.90
2018-07-19T18:26:25.815Z,91.30
2018-07-19T18:28:54.036Z,91.30
2018-07-19T18:31:22.349Z,91.80
2018-07-19T18:33:50.576Z,92.10
2018-07-19T18:36:18.754Z,92.50
2018-07-19T18:38:46.994Z,92.40
2018-07-19T18:41:15.323Z,93.10
2018-07-19T18:43:43.565Z,92.90
2018-07-19T18:46:11.877Z,94.40
2018-07-19T18:48:40.122Z,94.00
2018-07-19T18:51:08.418Z,94.90
2018-07-19T18:53:36.597Z,94.90
2018-07-19T18:56:04.798Z,95.70
2018-07-19T18:58:33.036Z,95.90
2018-07-19T19:01:01.226Z,95.90
2018-07-19T19:03:29.397Z,96.10
2018-07-19T19:05:57.565Z,96.30
2018-07-19T19:08:25.702Z,96.20
2018-07-19T19:10:53.921Z,96.50
2018-07-19T19:13:22.007Z,96.60
2018-07-19T19:15:50.350Z,97.20
2018-07-19T19:18:18.485Z,97.20
2018-07-19T19:20:46.618Z,97.50
2018-07-19T19:23:14.746Z,97.20
2018-07-19T19:25:42.918Z,97.30
2018-07-19T19:28:11.050Z,97.80
2018-07-19T19:33:07.174Z,97.70
2018-07-19T19:35:35.549Z,98.50
2018-07-19T19:38:03.751Z,98.50
2018-07-19T19:40:31.917Z,97.50
2018-07-19T19:43:00.065Z,97.40
2018-07-19T19:45:28.446Z,97.50
2018-07-19T19:47:56.599Z,98.00
2018-07-19T19:50:24.859Z,97.80
2018-07-19T19:52:53.011Z,97.90
2018-07-19T19:55:21.190Z,97.90
2018-07-19T19:57:49.434Z,98.10
2018-07-19T20:00:17.609Z,98.10
2018-07-19T20:02:45.766Z,98.40
2018-07-19T20:05:13.950Z,98.50
2018-07-19T20:07:42.122Z,98.60
2018-07-19T20:10:10.402Z,98.60
2018-07-19T20:12:39.227Z,99.10
2018-07-19T20:15:07.423Z,98.40
2018-07-19T20:17:35.742Z,98.70
2018-07-19T20:20:03.998Z,98.80
2018-07-19T20:22:32.166Z,98.90
2018-07-19T20:25:00.325Z,98.40
2018-07-19T20:27:28.512Z,98.40
2018-07-19T20:29:56.680Z,98.30
2018-07-19T20:32:24.910Z,99.00
2018-07-19T20:34:53.038Z,99.10
2018-07-19T20:37:21.214Z,99.30
2018-07-19T20:39:49.521Z,99.40
2018-07-19T20:42:17.784Z,99.90
2018-07-19T20:44:45.990Z,99.90
2018-07-19T20:47:14.242Z,99.90
2018-07-19T20:49:42.385Z,99.90
2018-07-19T20:52:10.526Z,99.90
2018-07-19T20:54:38.709Z,99.90
2018-07-19T20:57:13.650Z,99.90
2018-07-19T20:59:41.801Z,99.90
2018-07-19T21:02:09.950Z,99.90
2018-07-19T21:04:38.117Z,99.90
2018-07-19T21:07:06.256Z,99.90
2018-07-19T21:09:34.382Z,99.90
2018-07-19T21:12:02.522Z,99.90
2018-07-19T21:14:30.654Z,99.90
2018-07-19T21:16:58.876Z,99.90
2018-07-19T21:19:27.026Z,99.90
2018-07-19T21:21:55.210Z,99.90
2018-07-19T21:24:23.357Z,99.90
2018-07-19T21:26:51.493Z,99.90
2018-07-19T21:29:19.791Z,99.90
2018-07-19T21:31:48.042Z,99.90
2018-07-19T21:34:16.219Z,99.90
2018-07-19T21:36:44.410Z,99.90
2018-07-19T21:39:12.855Z,99.90
2018-07-19T21:41:41.237Z,99.90
2018-07-19T21:44:10.037Z,99.90
2018-07-19T21:46:38.185Z,99.90
2018-07-19T21:49:06.574Z,99.90
2018-07-19T21:51:34.762Z,99.90
2018-07-19T21:54:03.006Z,99.90
2018-07-19T21:56:31.404Z,99.90
2018-07-19T21:58:59.526Z,99.90
2018-07-19T22:01:27.660Z,99.90
2018-07-19T22:03:55.877Z,99.90
2018-07-19T22:06:24.118Z,99.90
2018-07-19T22:08:52.318Z,99.90
2018-07-19T22:11:20.423Z,99.90
2018-07-19T22:13:48.582Z,99.90
2018-07-19T22:16:16.793Z,99.90
2018-07-19T22:18:44.954Z,99.90
2018-07-19T22:21:13.110Z,99.90
2018-07-19T22:23:41.246Z,99.90
2018-07-19T22:26:09.393Z,99.90
2018-07-19T22:28:37.570Z,99.90
2018-07-19T22:31:05.781Z,99.90
2018-07-19T22:33:33.933Z,99.90
2018-07-19T22:36:02.053Z,99.90
2018-07-19T22:38:30.225Z,99.90
2018-07-19T22:40:58.330Z,99.90
2018-07-19T22:43:26.469Z,99.90
2018-07-19T22:45:54.619Z,99.90
2018-07-19T22:48:22.769Z,99.90
2018-07-19T22:50:50.912Z,99.90
2018-07-19T22:53:19.061Z,99.90
2018-07-19T22:55:47.277Z,99.90
2018-07-19T22:58:15.416Z,99.90
2018-07-19T23:00:43.539Z,99.90
2018-07-19T23:03:11.677Z,99.90
2018-07-19T23:05:39.809Z,99.90
2018-07-19T23:08:07.961Z,99.90
2018-07-19T23:10:36.089Z,99.90
2018-07-19T23:13:04.269Z,99.90
2018-07-19T23:15:32.401Z,99.90
2018-07-19T23:18:00.558Z,99.90
2018-07-19T23:20:28.721Z,99.90
2018-07-19T23:22:58.022Z,99.90
2018-07-19T23:25:26.145Z,99.90
2018-07-19T23:27:55.029Z,99.90
2018-07-19T23:30:25.617Z,99.90
2018-07-19T23:32:53.758Z,99.90
2018-07-19T23:35:23.426Z,99.90
2018-07-19T23:37:53.289Z,99.90
2018-07-19T23:40:26.184Z,99.90
2018-07-19T23:42:57.621Z,99.90
2018-07-19T23:45:38.834Z,99.90
2018-07-19T23:48:06.974Z,99.90
2018-07-19T23:50:35.111Z,99.90
2018-07-19T23:53:03.254Z,99.90
2018-07-19T23:55:31.394Z,99.90
2018-07-19T23:57:59.543Z,99.90
